Chapada dos Guimaraes, Brazil
Current Conditions -  °F | °C
As of 4:00 PM on Saturday 20 Dec 2014 (Local Time) from SBCY Reporting Station
Broken Clouds Broken Clouds  
Wind Chill: 90°   Ceiling: 2000
Heat Index: 98°   Visibility: 6mi
Dew Point: 73°   Wind: 14mph
Humidity: 59%   Direction: 350°N
Pressure: 29.68"   Gusts: NA
Location:  15.44°S, 55.77°W
Report Text: SBCY 201900Z 35012KT 9999 BKN020 FEW025TCU 32/23 Q1005
Loading
Personal Weather Stations






























Interactive Weather Map New forecast layout! Learn more

10-Day Weather Forecast

Advertisements
Track Severe Weather on mobile